Time;durP1;ratioP1;P1;durP2;ratioP2;P2;SDS_P1;SDS_P2;PMS_P1;PMS_P2;Temp;Humidity;BMP_temperature;BMP_pressure;BME280_temperature;BME280_humidity;BME280_pressure;Samples;Min_cycle;Max_cycle;Signal;HPM_P1;HPM_P2
2021/03/27 00:00:05;;;;;;;9.67;3.87;;;;;;;;;;10563837;28;20282;-70
2021/03/27 00:05:13;;;;;;;9.70;3.73;;;;;;;;;;10573844;28;20213;-69
2021/03/27 00:10:18;;;;;;;8.27;3.40;;;;;;;;;;10571028;28;20188;-70
2021/03/27 00:15:25;;;;;;;7.43;3.30;;;;;;;;;;10559524;28;20242;-70
2021/03/27 00:20:32;;;;;;;6.27;2.70;;;;;;;;;;10573461;28;20294;-69
2021/03/27 00:25:35;;;;;;;4.40;1.73;;;;;;;;;;10575012;28;20310;-69
2021/03/27 00:30:40;;;;;;;8.50;3.20;;;;;;;;;;10547935;28;20275;-70
2021/03/27 00:35:43;;;;;;;8.50;3.30;;;;;;;;;;10561310;28;20283;-70
2021/03/27 00:40:46;;;;;;;7.20;3.10;;;;;;;;;;10567975;28;20313;-69
2021/03/27 00:45:50;;;;;;;7.87;2.90;;;;;;;;;;10569101;28;20219;-70
2021/03/27 00:50:55;;;;;;;7.83;2.73;;;;;;;;;;10567761;28;20649;-70
2021/03/27 00:55:58;;;;;;;5.67;2.60;;;;;;;;;;10549361;28;20220;-70
2021/03/27 01:01:03;;;;;;;5.67;2.70;;;;;;;;;;10579582;27;20202;-70
2021/03/27 01:06:07;;;;;;;6.47;2.80;;;;;;;;;;10581854;27;20234;-70
2021/03/27 01:11:11;;;;;;;6.43;2.83;;;;;;;;;;10589078;27;20267;-70
2021/03/27 01:16:16;;;;;;;6.33;2.57;;;;;;;;;;10585248;27;20235;-70
2021/03/27 01:21:23;;;;;;;5.10;2.47;;;;;;;;;;10569336;27;20634;-71
2021/03/27 01:26:27;;;;;;;4.30;1.57;;;;;;;;;;10569194;27;20297;-70
2021/03/27 01:31:36;;;;;;;7.83;2.80;;;;;;;;;;10570175;27;20270;-70
2021/03/27 01:36:40;;;;;;;7.27;3.10;;;;;;;;;;10566447;27;20207;-70
2021/03/27 01:41:53;;;;;;;7.07;2.90;;;;;;;;;;10575269;27;20191;-71
2021/03/27 01:47:03;;;;;;;6.90;2.87;;;;;;;;;;10605520;27;20236;-71
2021/03/27 01:52:13;;;;;;;6.40;2.77;;;;;;;;;;10609347;27;20218;-71
2021/03/27 01:57:21;;;;;;;7.20;2.70;;;;;;;;;;10599294;27;20218;-70
2021/03/27 02:02:27;;;;;;;6.63;3.00;;;;;;;;;;10578329;27;20710;-70
2021/03/27 02:07:36;;;;;;;5.37;2.50;;;;;;;;;;10543796;28;20198;-71
2021/03/27 02:12:50;;;;;;;4.17;2.07;;;;;;;;;;10582994;27;20223;-71
2021/03/27 02:17:54;;;;;;;5.67;2.47;;;;;;;;;;10554179;27;20611;-70
2021/03/27 02:23:04;;;;;;;7.07;3.20;;;;;;;;;;10575702;27;20347;-70
2021/03/27 02:28:11;;;;;;;6.00;2.57;;;;;;;;;;10554148;27;20183;-70
2021/03/27 02:33:19;;;;;;;9.20;2.90;;;;;;;;;;10582322;27;20700;-70
2021/03/27 02:38:26;;;;;;;6.33;2.90;;;;;;;;;;10581762;27;20689;-70
2021/03/27 02:43:31;;;;;;;5.97;2.77;;;;;;;;;;10577003;27;20215;-70
2021/03/27 02:48:42;;;;;;;7.77;3.03;;;;;;;;;;10562100;27;20278;-69
2021/03/27 02:53:47;;;;;;;6.77;2.63;;;;;;;;;;10578114;27;20211;-70
2021/03/27 02:58:55;;;;;;;6.80;2.87;;;;;;;;;;10565311;27;20257;-70
2021/03/27 03:04:03;;;;;;;9.37;3.50;;;;;;;;;;10562939;27;20362;-69
2021/03/27 03:09:08;;;;;;;7.17;3.00;;;;;;;;;;10580740;27;20277;-69
2021/03/27 03:14:15;;;;;;;7.20;2.73;;;;;;;;;;10578411;27;20365;-70
2021/03/27 03:19:21;;;;;;;5.20;2.70;;;;;;;;;;10574464;27;20302;-69
2021/03/27 03:24:24;;;;;;;6.60;2.67;;;;;;;;;;10572793;27;20203;-70
2021/03/27 03:29:32;;;;;;;6.20;2.60;;;;;;;;;;10568500;27;20192;-70
2021/03/27 03:34:48;;;;;;;6.37;3.17;;;;;;;;;;10572426;27;20226;-71
2021/03/27 03:39:57;;;;;;;7.27;2.87;;;;;;;;;;10568889;27;20239;-70
2021/03/27 03:45:05;;;;;;;4.83;2.53;;;;;;;;;;10562385;27;20223;-70
2021/03/27 03:50:15;;;;;;;7.87;3.30;;;;;;;;;;10567229;28;20259;-70
2021/03/27 03:55:22;;;;;;;7.47;3.43;;;;;;;;;;10562140;28;20235;-70
2021/03/27 04:00:25;;;;;;;7.90;3.50;;;;;;;;;;10577100;28;20238;-71
2021/03/27 04:05:32;;;;;;;8.13;3.60;;;;;;;;;;10567180;28;20389;-70
2021/03/27 04:10:34;;;;;;;7.50;3.53;;;;;;;;;;10559143;28;20290;-70
2021/03/27 04:15:38;;;;;;;10.50;4.13;;;;;;;;;;10573138;28;20293;-70
2021/03/27 04:20:45;;;;;;;9.07;4.17;;;;;;;;;;10571460;28;20207;-70
2021/03/27 04:25:53;;;;;;;9.77;3.97;;;;;;;;;;10554702;28;20238;-71
2021/03/27 04:30:58;;;;;;;9.23;4.63;;;;;;;;;;10568959;27;20198;-71
2021/03/27 04:36:04;;;;;;;9.90;4.50;;;;;;;;;;10565635;27;20214;-70
2021/03/27 04:41:13;;;;;;;9.00;4.40;;;;;;;;;;10577865;27;20689;-70
2021/03/27 04:46:20;;;;;;;9.57;4.60;;;;;;;;;;10584005;27;20397;-71
2021/03/27 04:51:36;;;;;;;8.30;4.17;;;;;;;;;;10563436;27;20191;-71
2021/03/27 04:56:44;;;;;;;9.73;4.30;;;;;;;;;;10561837;27;20287;-70
2021/03/27 05:01:50;;;;;;;9.00;4.20;;;;;;;;;;10551902;28;20219;-71
2021/03/27 05:06:55;;;;;;;8.73;4.60;;;;;;;;;;10572838;27;20203;-69
2021/03/27 05:11:59;;;;;;;10.37;4.60;;;;;;;;;;10577373;27;20216;-71
2021/03/27 05:17:05;;;;;;;9.83;5.00;;;;;;;;;;10563363;27;20517;-70
2021/03/27 05:22:12;;;;;;;9.20;5.33;;;;;;;;;;10578858;27;20238;-70
2021/03/27 05:27:21;;;;;;;9.43;4.53;;;;;;;;;;10565232;27;20196;-70
2021/03/27 05:32:46;;;;;;;10.23;5.43;;;;;;;;;;10555813;27;20284;-70
2021/03/27 05:37:53;;;;;;;10.63;5.00;;;;;;;;;;10589361;27;20542;-70
2021/03/27 05:43:15;;;;;;;9.17;5.07;;;;;;;;;;10562076;27;20227;-71
2021/03/27 05:48:47;;;;;;;7.43;3.57;;;;;;;;;;10575309;27;20296;-69
2021/03/27 05:54:04;;;;;;;9.53;5.17;;;;;;;;;;10555352;27;20229;-71
2021/03/27 05:59:23;;;;;;;8.83;4.70;;;;;;;;;;10581703;27;20305;-70
2021/03/27 06:04:40;;;;;;;9.23;4.43;;;;;;;;;;10545924;27;20215;-69
2021/03/27 06:10:04;;;;;;;7.57;4.00;;;;;;;;;;10575192;27;20222;-70
2021/03/27 06:15:23;;;;;;;9.40;4.90;;;;;;;;;;10565746;27;20222;-71
2021/03/27 06:20:49;;;;;;;7.90;4.30;;;;;;;;;;10581646;27;20293;-72
2021/03/27 06:25:56;;;;;;;4.97;2.40;;;;;;;;;;10545113;27;20531;-71
2021/03/27 06:31:08;;;;;;;4.73;1.90;;;;;;;;;;10575674;27;20266;-71
2021/03/27 06:36:34;;;;;;;4.80;2.50;;;;;;;;;;10575646;27;20214;-69
2021/03/27 06:41:46;;;;;;;5.50;1.73;;;;;;;;;;10568174;27;20313;-69
2021/03/27 06:47:09;;;;;;;4.30;2.13;;;;;;;;;;10529392;28;20195;-68
2021/03/27 06:52:30;;;;;;;7.93;1.80;;;;;;;;;;10526919;28;20223;-69
2021/03/27 06:57:42;;;;;;;4.23;1.60;;;;;;;;;;10531720;28;20216;-69
2021/03/27 07:03:16;;;;;;;3.63;1.87;;;;;;;;;;10526039;28;20254;-69
2021/03/27 07:08:30;;;;;;;4.53;1.57;;;;;;;;;;10518897;28;20609;-69
2021/03/27 07:14:03;;;;;;;5.00;2.30;;;;;;;;;;10530497;28;20306;-70
2021/03/27 07:19:29;;;;;;;3.40;1.70;;;;;;;;;;10559127;27;21002;-70
2021/03/27 07:24:48;;;;;;;2.90;1.70;;;;;;;;;;10524984;28;20226;-71
2021/03/27 07:30:06;;;;;;;4.93;2.03;;;;;;;;;;10527512;28;20756;-69
2021/03/27 07:35:18;;;;;;;4.40;1.83;;;;;;;;;;10523924;28;20220;-70
2021/03/27 07:40:33;;;;;;;6.97;1.73;;;;;;;;;;10527638;28;20218;-70
2021/03/27 07:45:56;;;;;;;2.07;1.10;;;;;;;;;;10586901;28;20233;-72
2021/03/27 07:51:22;;;;;;;1.90;0.80;;;;;;;;;;10574978;27;20191;-70
2021/03/27 07:56:37;;;;;;;1.73;0.30;;;;;;;;;;10507610;28;20359;-69
2021/03/27 08:01:48;;;;;;;1.40;0.60;;;;;;;;;;10568704;28;20183;-71
2021/03/27 08:06:52;;;;;;;0.60;0.33;;;;;;;;;;10556711;28;20190;-72
2021/03/27 08:12:03;;;;;;;0.50;0.40;;;;;;;;;;10567173;27;20313;-71
2021/03/27 08:17:15;;;;;;;2.50;0.87;;;;;;;;;;10566978;27;20202;-71
2021/03/27 08:22:34;;;;;;;1.13;0.40;;;;;;;;;;10558866;27;20698;-71
2021/03/27 08:27:44;;;;;;;2.10;0.70;;;;;;;;;;10555147;27;20259;-71
2021/03/27 08:33:19;;;;;;;0.30;0.30;;;;;;;;;;10560269;27;20223;-70
2021/03/27 08:38:44;;;;;;;1.03;0.63;;;;;;;;;;10573803;27;20643;-71
2021/03/27 08:43:59;;;;;;;0.77;0.30;;;;;;;;;;10549524;27;20730;-70
2021/03/27 08:49:06;;;;;;;1.50;0.53;;;;;;;;;;10550511;27;20221;-71
2021/03/27 08:54:34;;;;;;;2.00;1.00;;;;;;;;;;10576766;27;20225;-70
2021/03/27 08:59:44;;;;;;;1.57;0.93;;;;;;;;;;10546131;27;20219;-71
2021/03/27 09:04:59;;;;;;;3.53;1.80;;;;;;;;;;10562288;27;20313;-70
2021/03/27 09:10:19;;;;;;;3.20;1.27;;;;;;;;;;10559777;27;20192;-70
2021/03/27 09:15:38;;;;;;;2.13;1.07;;;;;;;;;;10562752;28;20311;-71
2021/03/27 09:20:57;;;;;;;1.63;1.20;;;;;;;;;;10553311;27;20223;-71
2021/03/27 09:26:11;;;;;;;2.53;1.40;;;;;;;;;;10576120;27;20209;-71
2021/03/27 09:31:37;;;;;;;2.13;0.90;;;;;;;;;;10563468;27;20847;-71
2021/03/27 09:36:45;;;;;;;0.87;0.73;;;;;;;;;;10541648;28;20208;-71
2021/03/27 09:42:04;;;;;;;1.63;1.00;;;;;;;;;;10586464;27;20590;-71
2021/03/27 09:47:15;;;;;;;1.17;0.90;;;;;;;;;;10565233;27;20263;-71
2021/03/27 09:52:36;;;;;;;2.50;1.20;;;;;;;;;;10563564;27;20643;-70
2021/03/27 09:57:46;;;;;;;2.57;1.07;;;;;;;;;;10570362;27;20605;-71
2021/03/27 10:02:55;;;;;;;1.43;1.00;;;;;;;;;;10555768;27;20242;-71
2021/03/27 10:08:03;;;;;;;1.10;1.00;;;;;;;;;;10569931;27;20198;-70
2021/03/27 10:13:13;;;;;;;1.58;1.00;;;;;;;;;;10562469;27;20666;-71
2021/03/27 10:18:21;;;;;;;3.13;1.00;;;;;;;;;;10555869;27;20727;-70
2021/03/27 10:23:32;;;;;;;1.60;0.90;;;;;;;;;;10577749;27;20291;-71
2021/03/27 10:28:38;;;;;;;2.05;1.10;;;;;;;;;;10587061;27;20194;-71
2021/03/27 10:33:41;;;;;;;1.33;1.13;;;;;;;;;;10585835;27;20231;-71
2021/03/27 10:38:57;;;;;;;4.10;1.15;;;;;;;;;;10572450;27;20281;-71
2021/03/27 10:44:11;;;;;;;1.35;1.02;;;;;;;;;;10551754;27;20222;-71
2021/03/27 10:49:20;;;;;;;1.55;0.77;;;;;;;;;;10569353;27;20202;-71
2021/03/27 10:54:41;;;;;;;1.83;0.70;;;;;;;;;;10570990;27;20260;-71
2021/03/27 10:59:51;;;;;;;1.97;0.80;;;;;;;;;;10570476;27;20210;-72
2021/03/27 11:05:11;;;;;;;1.10;0.60;;;;;;;;;;10532143;27;20218;-72
2021/03/27 11:10:32;;;;;;;1.03;0.60;;;;;;;;;;10539259;27;20659;-72
2021/03/27 11:15:43;;;;;;;1.50;0.60;;;;;;;;;;10534841;27;20238;-71
2021/03/27 11:21:03;;;;;;;1.80;0.77;;;;;;;;;;10570166;27;20215;-71
2021/03/27 11:26:17;;;;;;;1.73;0.60;;;;;;;;;;10553475;27;20223;-71
2021/03/27 11:31:29;;;;;;;2.27;0.60;;;;;;;;;;10564877;27;20194;-71
2021/03/27 11:36:34;;;;;;;1.93;0.70;;;;;;;;;;10548027;27;20607;-70
2021/03/27 11:41:38;;;;;;;2.97;0.90;;;;;;;;;;10570987;27;20235;-70
2021/03/27 11:46:44;;;;;;;2.73;1.07;;;;;;;;;;10562603;27;20216;-72
2021/03/27 11:51:48;;;;;;;2.37;0.87;;;;;;;;;;10562433;28;20246;-70
2021/03/27 11:56:52;;;;;;;2.57;1.07;;;;;;;;;;10570383;28;20194;-71
2021/03/27 12:01:58;;;;;;;2.93;1.00;;;;;;;;;;10566208;28;20312;-69
2021/03/27 12:07:08;;;;;;;2.40;0.60;;;;;;;;;;10567666;28;20190;-72
2021/03/27 12:12:13;;;;;;;1.83;0.80;;;;;;;;;;10554263;28;20234;-70
2021/03/27 12:17:22;;;;;;;1.37;0.70;;;;;;;;;;10567589;28;20215;-72
2021/03/27 12:22:27;;;;;;;2.23;1.13;;;;;;;;;;10553905;28;20223;-70
2021/03/27 12:27:30;;;;;;;2.93;1.10;;;;;;;;;;10550811;28;20233;-72
2021/03/27 12:32:51;;;;;;;3.13;0.97;;;;;;;;;;10561491;28;20265;-72
2021/03/27 12:38:13;;;;;;;1.23;0.53;;;;;;;;;;10564303;28;20732;-70
2021/03/27 12:43:17;;;;;;;3.40;1.00;;;;;;;;;;10556784;28;20305;-71
2021/03/27 12:48:25;;;;;;;4.23;1.10;;;;;;;;;;10553873;28;20244;-71
2021/03/27 12:53:48;;;;;;;3.33;1.07;;;;;;;;;;10575033;28;20315;-72
2021/03/27 12:58:55;;;;;;;1.40;0.70;;;;;;;;;;10565354;27;20682;-71
2021/03/27 13:04:11;;;;;;;2.57;1.00;;;;;;;;;;10565200;28;20363;-75
2021/03/27 13:09:39;;;;;;;1.77;0.90;;;;;;;;;;10551982;27;20198;-70
2021/03/27 13:14:56;;;;;;;2.43;0.93;;;;;;;;;;10563659;27;20259;-70
2021/03/27 13:20:04;;;;;;;2.97;0.90;;;;;;;;;;10539996;27;20292;-70
2021/03/27 13:25:15;;;;;;;3.63;1.30;;;;;;;;;;10566349;27;20240;-70
2021/03/27 13:30:23;;;;;;;3.27;1.17;;;;;;;;;;10538367;28;20286;-71
2021/03/27 13:35:28;;;;;;;2.50;1.37;;;;;;;;;;10543937;28;20238;-69
2021/03/27 13:40:31;;;;;;;1.70;1.00;;;;;;;;;;10576657;27;20214;-72
2021/03/27 13:45:35;;;;;;;2.40;1.10;;;;;;;;;;10559151;27;20233;-70
2021/03/27 13:50:40;;;;;;;3.63;1.10;;;;;;;;;;10572824;27;20182;-71
2021/03/27 13:55:52;;;;;;;2.33;1.20;;;;;;;;;;10562228;27;20207;-72
2021/03/27 14:00:57;;;;;;;2.07;0.80;;;;;;;;;;10571909;27;20472;-70
2021/03/27 14:06:04;;;;;;;0.97;0.60;;;;;;;;;;10564602;27;20212;-71
2021/03/27 14:11:10;;;;;;;2.30;1.07;;;;;;;;;;10578384;27;20264;-69
2021/03/27 14:16:18;;;;;;;1.80;1.10;;;;;;;;;;10563205;27;20207;-70
2021/03/27 14:21:24;;;;;;;2.33;1.13;;;;;;;;;;10577315;27;20302;-71
2021/03/27 14:26:58;;;;;;;0.70;0.60;;;;;;;;;;10569621;27;20199;-72
2021/03/27 14:32:08;;;;;;;1.73;0.90;;;;;;;;;;10563476;27;20664;-71
2021/03/27 14:37:16;;;;;;;3.03;0.90;;;;;;;;;;10533954;27;20183;-71
2021/03/27 14:42:36;;;;;;;1.00;0.47;;;;;;;;;;10556426;28;20211;-71
2021/03/27 14:47:56;;;;;;;1.67;1.00;;;;;;;;;;10571790;27;20244;-72
2021/03/27 14:53:05;;;;;;;3.03;1.10;;;;;;;;;;10571025;27;20332;-71
2021/03/27 14:58:10;;;;;;;2.27;1.10;;;;;;;;;;10572560;27;20210;-72
2021/03/27 15:03:16;;;;;;;1.53;1.00;;;;;;;;;;10554737;27;20218;-72
2021/03/27 15:08:28;;;;;;;1.10;0.73;;;;;;;;;;10562888;28;20262;-73
2021/03/27 15:13:36;;;;;;;0.57;0.50;;;;;;;;;;10565656;27;20547;-72
2021/03/27 15:18:41;;;;;;;2.17;1.00;;;;;;;;;;10567971;27;20202;-72
2021/03/27 15:23:47;;;;;;;2.20;0.77;;;;;;;;;;10546271;27;20215;-70
2021/03/27 15:28:52;;;;;;;2.10;0.67;;;;;;;;;;10553107;27;20195;-71
2021/03/27 15:33:58;;;;;;;0.90;0.63;;;;;;;;;;10560117;27;20223;-72
2021/03/27 15:39:05;;;;;;;2.07;0.80;;;;;;;;;;10568277;27;20738;-70
2021/03/27 15:44:10;;;;;;;1.37;0.70;;;;;;;;;;10565914;27;20317;-72
2021/03/27 15:49:25;;;;;;;1.87;0.70;;;;;;;;;;10547913;28;20265;-70
2021/03/27 15:54:35;;;;;;;1.97;0.80;;;;;;;;;;10562329;28;20298;-72
2021/03/27 15:59:44;;;;;;;1.63;0.83;;;;;;;;;;10568774;28;20229;-71
2021/03/27 16:04:48;;;;;;;2.53;1.07;;;;;;;;;;10583229;28;20252;-72
2021/03/27 16:09:55;;;;;;;1.60;1.00;;;;;;;;;;10582513;28;20195;-72
2021/03/27 16:15:06;;;;;;;2.30;0.93;;;;;;;;;;10546634;28;20226;-72
2021/03/27 16:20:18;;;;;;;2.30;0.90;;;;;;;;;;10556036;28;20249;-72
2021/03/27 16:25:35;;;;;;;1.10;0.70;;;;;;;;;;10570120;28;20222;-70
2021/03/27 16:30:46;;;;;;;2.27;0.80;;;;;;;;;;10558497;27;20198;-71
2021/03/27 16:35:55;;;;;;;2.87;0.80;;;;;;;;;;10574106;27;20219;-71
2021/03/27 16:41:03;;;;;;;2.43;0.90;;;;;;;;;;10553708;27;20639;-71
2021/03/27 16:46:12;;;;;;;2.10;0.90;;;;;;;;;;10560309;27;20219;-70
2021/03/27 16:51:17;;;;;;;4.20;1.40;;;;;;;;;;10559602;27;20193;-71
2021/03/27 16:56:22;;;;;;;2.60;1.20;;;;;;;;;;10557164;27;20210;-69
2021/03/27 17:01:29;;;;;;;2.67;0.90;;;;;;;;;;10573404;27;20321;-70
2021/03/27 17:06:33;;;;;;;3.90;1.23;;;;;;;;;;10568871;27;20218;-71
2021/03/27 17:11:49;;;;;;;3.13;0.90;;;;;;;;;;10547537;28;20567;-71
2021/03/27 17:16:58;;;;;;;1.63;0.90;;;;;;;;;;10573280;27;20194;-70
2021/03/27 17:22:08;;;;;;;2.33;1.00;;;;;;;;;;10560759;27;20292;-71
2021/03/27 17:27:13;;;;;;;3.40;0.97;;;;;;;;;;10568496;27;20661;-72
2021/03/27 17:32:35;;;;;;;3.90;1.10;;;;;;;;;;10552665;27;20206;-72
2021/03/27 17:37:44;;;;;;;4.53;1.73;;;;;;;;;;10574592;27;20660;-72
2021/03/27 17:42:48;;;;;;;2.80;1.00;;;;;;;;;;10577670;27;20268;-70
2021/03/27 17:47:56;;;;;;;2.97;1.13;;;;;;;;;;10558658;27;20219;-71
2021/03/27 17:53:00;;;;;;;3.57;1.30;;;;;;;;;;10559223;27;20779;-71
2021/03/27 17:58:06;;;;;;;3.53;1.10;;;;;;;;;;10560888;28;20199;-71
2021/03/27 18:03:26;;;;;;;2.80;1.00;;;;;;;;;;10543383;28;20218;-73
2021/03/27 18:08:29;;;;;;;3.17;1.27;;;;;;;;;;10548159;27;20563;-74
2021/03/27 18:13:41;;;;;;;4.43;1.20;;;;;;;;;;10556289;27;20223;-71
2021/03/27 18:18:49;;;;;;;4.43;1.30;;;;;;;;;;10531127;28;20227;-72
2021/03/27 18:23:59;;;;;;;3.10;0.90;;;;;;;;;;10555284;28;20215;-71
2021/03/27 18:29:04;;;;;;;6.20;1.50;;;;;;;;;;10565857;27;20253;-71
2021/03/27 18:34:09;;;;;;;2.87;1.20;;;;;;;;;;10560939;27;20214;-73
2021/03/27 18:39:15;;;;;;;4.30;1.43;;;;;;;;;;10582848;28;20203;-69
2021/03/27 18:44:19;;;;;;;3.50;1.50;;;;;;;;;;10571280;27;20336;-71
2021/03/27 18:49:25;;;;;;;4.90;1.53;;;;;;;;;;10569060;27;21102;-72
2021/03/27 18:54:31;;;;;;;2.33;0.97;;;;;;;;;;10570313;27;20210;-73
2021/03/27 18:59:34;;;;;;;4.57;0.90;;;;;;;;;;10582053;28;20237;-71
2021/03/27 19:04:40;;;;;;;4.70;1.33;;;;;;;;;;10553929;28;20214;-73
2021/03/27 19:09:46;;;;;;;3.00;1.30;;;;;;;;;;10571089;28;20198;-71
2021/03/27 19:14:51;;;;;;;2.53;1.20;;;;;;;;;;10545524;28;20223;-71
2021/03/27 19:19:57;;;;;;;5.20;1.60;;;;;;;;;;10569848;27;20313;-72
2021/03/27 19:25:03;;;;;;;5.33;1.70;;;;;;;;;;10546730;28;20694;-72
2021/03/27 19:30:07;;;;;;;3.53;1.47;;;;;;;;;;10542197;27;20268;-71
2021/03/27 19:35:17;;;;;;;6.23;2.00;;;;;;;;;;10563942;28;20275;-70
2021/03/27 19:40:22;;;;;;;5.20;1.57;;;;;;;;;;10546151;28;20207;-71
2021/03/27 19:45:28;;;;;;;4.87;1.30;;;;;;;;;;10547787;28;20282;-71
2021/03/27 19:50:33;;;;;;;3.53;1.40;;;;;;;;;;10532508;28;20282;-70
2021/03/27 19:55:36;;;;;;;2.83;1.40;;;;;;;;;;10552188;28;20254;-71
2021/03/27 20:00:43;;;;;;;5.03;1.40;;;;;;;;;;10568198;28;20234;-71
2021/03/27 20:05:51;;;;;;;5.30;1.70;;;;;;;;;;10558507;27;20647;-71
2021/03/27 20:10:54;;;;;;;4.03;1.67;;;;;;;;;;10571221;27;20198;-70
2021/03/27 20:16:01;;;;;;;4.80;1.70;;;;;;;;;;10567447;28;20203;-72
2021/03/27 20:21:07;;;;;;;4.03;1.53;;;;;;;;;;10569301;27;20215;-70
2021/03/27 20:26:27;;;;;;;4.63;1.50;;;;;;;;;;10574016;27;20214;-72
2021/03/27 20:31:37;;;;;;;4.37;1.50;;;;;;;;;;10568524;28;20685;-71
2021/03/27 20:36:42;;;;;;;4.57;1.50;;;;;;;;;;10571648;27;20220;-72
2021/03/27 20:41:54;;;;;;;3.90;1.60;;;;;;;;;;10566165;27;20234;-70
2021/03/27 20:47:09;;;;;;;4.63;1.80;;;;;;;;;;10570939;27;20318;-71
2021/03/27 20:52:18;;;;;;;5.07;1.90;;;;;;;;;;10555277;27;20202;-72
2021/03/27 20:57:33;;;;;;;3.70;1.60;;;;;;;;;;10571019;27;20199;-72
2021/03/27 21:02:42;;;;;;;5.70;1.90;;;;;;;;;;10572174;27;20229;-71
2021/03/27 21:07:51;;;;;;;4.97;1.97;;;;;;;;;;10554507;27;20190;-73
2021/03/27 21:13:05;;;;;;;4.13;1.70;;;;;;;;;;10574931;28;20260;-72
2021/03/27 21:18:07;;;;;;;4.53;1.67;;;;;;;;;;10568538;27;20209;-71
2021/03/27 21:23:20;;;;;;;5.37;2.30;;;;;;;;;;10543068;27;20218;-71
2021/03/27 21:28:29;;;;;;;4.00;1.30;;;;;;;;;;10569945;27;20228;-71
2021/03/27 21:33:51;;;;;;;5.80;2.10;;;;;;;;;;10575790;27;20680;-74
2021/03/27 21:39:05;;;;;;;5.27;1.80;;;;;;;;;;10549478;28;20203;-71
2021/03/27 21:44:16;;;;;;;7.17;2.07;;;;;;;;;;10557760;27;20323;-71
2021/03/27 21:49:36;;;;;;;4.10;1.63;;;;;;;;;;10575125;27;20195;-70
2021/03/27 21:54:50;;;;;;;5.00;1.90;;;;;;;;;;10545910;28;20249;-72
2021/03/27 21:59:55;;;;;;;6.83;2.00;;;;;;;;;;10570333;27;20275;-72
2021/03/27 22:05:04;;;;;;;4.03;1.80;;;;;;;;;;10574996;27;20617;-71
2021/03/27 22:10:13;;;;;;;5.83;1.83;;;;;;;;;;10564720;27;20188;-73
2021/03/27 22:15:16;;;;;;;5.00;1.87;;;;;;;;;;10570596;27;20279;-71
2021/03/27 22:20:29;;;;;;;4.93;1.90;;;;;;;;;;10572832;27;20194;-71
2021/03/27 22:25:34;;;;;;;4.47;1.80;;;;;;;;;;10545622;28;20724;-69
2021/03/27 22:30:38;;;;;;;3.90;2.03;;;;;;;;;;10564563;27;20246;-72
2021/03/27 22:36:06;;;;;;;4.00;1.50;;;;;;;;;;10569892;27;20215;-71
2021/03/27 22:41:17;;;;;;;4.27;1.97;;;;;;;;;;10511651;28;20289;-71
2021/03/27 22:46:27;;;;;;;4.80;1.90;;;;;;;;;;10548018;27;20588;-71
2021/03/27 22:51:31;;;;;;;4.13;1.60;;;;;;;;;;10559962;27;20302;-72
2021/03/27 22:56:38;;;;;;;6.53;2.00;;;;;;;;;;10569793;27;20215;-70
2021/03/27 23:01:42;;;;;;;6.23;1.80;;;;;;;;;;10566098;27;20191;-71
2021/03/27 23:06:44;;;;;;;4.70;2.13;;;;;;;;;;10554768;27;20289;-70
2021/03/27 23:11:48;;;;;;;4.87;1.80;;;;;;;;;;10565005;27;20770;-70
2021/03/27 23:16:50;;;;;;;5.40;1.80;;;;;;;;;;10569002;27;20190;-70
2021/03/27 23:21:56;;;;;;;5.70;1.70;;;;;;;;;;10560626;27;20562;-71
2021/03/27 23:27:18;;;;;;;5.00;1.70;;;;;;;;;;10565891;27;20256;-72
2021/03/27 23:32:23;;;;;;;3.70;1.63;;;;;;;;;;10554970;27;20218;-72
2021/03/27 23:37:40;;;;;;;5.10;1.70;;;;;;;;;;10569534;27;20274;-71
2021/03/27 23:42:45;;;;;;;4.57;1.83;;;;;;;;;;10543562;28;20624;-71
2021/03/27 23:47:50;;;;;;;3.30;1.60;;;;;;;;;;10567042;28;20277;-72
2021/03/27 23:52:57;;;;;;;5.80;1.63;;;;;;;;;;10564709;27;20222;-71
2021/03/27 23:58:03;;;;;;;4.87;1.77;;;;;;;;;;10579224;27;20199;-71
